createdAt,value
2023-04-16T00:01:50.720Z,8.10
2023-04-16T00:04:17.674Z,8.10
2023-04-16T00:06:44.508Z,8.10
2023-04-16T00:09:11.459Z,8.10
2023-04-16T00:11:38.353Z,8.10
2023-04-16T00:14:05.193Z,8.10
2023-04-16T00:16:32.231Z,8.10
2023-04-16T00:18:59.038Z,8.10
2023-04-16T00:21:26.568Z,8.10
2023-04-16T00:23:53.341Z,8.10
2023-04-16T00:26:20.444Z,8.10
2023-04-16T00:28:47.305Z,8.10
2023-04-16T00:31:14.590Z,8.10
2023-04-16T00:33:41.418Z,8.10
2023-04-16T00:36:09.728Z,8.10
2023-04-16T00:38:37.093Z,8.10
2023-04-16T00:41:03.880Z,8.10
2023-04-16T00:43:31.679Z,8.10
2023-04-16T00:45:58.921Z,8.10
2023-04-16T00:48:28.009Z,8.10
2023-04-16T00:50:55.486Z,8.10
2023-04-16T00:53:22.512Z,8.10
2023-04-16T00:55:49.285Z,8.10
2023-04-16T00:58:16.934Z,8.10
2023-04-16T01:00:43.695Z,8.10
2023-04-16T01:03:10.883Z,8.10
2023-04-16T01:05:38.283Z,8.10
2023-04-16T01:08:05.433Z,8.10
2023-04-16T01:10:32.233Z,8.10
2023-04-16T01:12:59.022Z,8.10
2023-04-16T01:15:25.797Z,8.10
2023-04-16T01:17:52.598Z,8.10
2023-04-16T01:20:19.403Z,8.10
2023-04-16T01:22:46.241Z,8.10
2023-04-16T01:25:16.434Z,8.10
2023-04-16T01:27:43.269Z,8.20
2023-04-16T01:30:10.501Z,8.20
2023-04-16T01:32:50.466Z,8.20
2023-04-16T01:35:20.391Z,8.10
2023-04-16T01:37:47.241Z,8.10
2023-04-16T01:40:14.131Z,8.10
2023-04-16T01:42:40.957Z,8.10
2023-04-16T01:45:08.162Z,8.10
2023-04-16T01:47:35.063Z,8.10
2023-04-16T01:50:02.347Z,8.10
2023-04-16T01:52:29.867Z,8.10
2023-04-16T01:54:57.103Z,8.10
2023-04-16T01:57:23.990Z,8.10
2023-04-16T01:59:50.908Z,8.10
2023-04-16T02:02:17.918Z,8.10
2023-04-16T02:04:46.319Z,8.10
2023-04-16T02:07:13.146Z,8.10
2023-04-16T02:09:40.992Z,8.10
2023-04-16T02:12:09.525Z,8.10
2023-04-16T02:14:36.304Z,8.00
2023-04-16T02:17:03.320Z,8.00
2023-04-16T02:19:43.301Z,8.00
2023-04-16T02:22:10.621Z,8.00
2023-04-16T02:24:37.390Z,8.00
2023-04-16T02:27:08.082Z,8.00
2023-04-16T02:29:35.682Z,8.00
2023-04-16T02:32:10.421Z,8.00
2023-04-16T02:34:40.000Z,8.00
2023-04-16T02:37:06.807Z,8.00
2023-04-16T02:39:33.573Z,8.10
2023-04-16T02:42:02.467Z,8.00
2023-04-16T02:44:29.355Z,8.00
2023-04-16T02:46:56.114Z,8.00
2023-04-16T02:49:22.918Z,8.00
2023-04-16T02:51:50.130Z,8.00
2023-04-16T02:54:16.946Z,8.00
2023-04-16T02:56:43.726Z,8.00
2023-04-16T02:59:10.797Z,8.10
2023-04-16T03:01:37.850Z,8.00
2023-04-16T03:04:05.038Z,8.10
2023-04-16T03:06:32.028Z,8.10
2023-04-16T03:08:58.893Z,8.00
2023-04-16T03:11:25.658Z,8.00
2023-04-16T03:13:52.480Z,8.10
2023-04-16T03:16:19.761Z,8.00
2023-04-16T03:18:46.710Z,8.00
2023-04-16T03:21:13.577Z,8.10
2023-04-16T03:23:40.374Z,8.00
2023-04-16T03:26:07.168Z,8.10
2023-04-16T03:28:34.122Z,8.10
2023-04-16T03:31:01.207Z,8.10
2023-04-16T03:33:28.461Z,8.10
2023-04-16T03:35:57.013Z,8.10
2023-04-16T03:38:26.525Z,8.10
2023-04-16T03:40:56.033Z,8.10
2023-04-16T03:43:22.963Z,8.10
2023-04-16T03:45:49.930Z,8.20
2023-04-16T03:48:19.140Z,8.20
2023-04-16T03:50:47.809Z,8.10
2023-04-16T03:53:16.522Z,8.10
2023-04-16T03:55:43.440Z,8.10
2023-04-16T03:58:10.720Z,8.10
2023-04-16T04:00:37.498Z,8.10
2023-04-16T04:03:11.423Z,8.10
2023-04-16T04:05:42.426Z,8.20
2023-04-16T04:08:11.355Z,8.10
2023-04-16T04:10:38.502Z,8.20
2023-04-16T04:13:07.009Z,8.10
2023-04-16T04:15:34.799Z,8.10
2023-04-16T04:18:01.649Z,8.20
2023-04-16T04:20:28.652Z,8.20
2023-04-16T04:22:55.517Z,8.20
2023-04-16T04:25:25.296Z,8.20
2023-04-16T04:27:52.197Z,8.20
2023-04-16T04:30:19.094Z,8.20
2023-04-16T04:32:46.124Z,8.20
2023-04-16T04:35:13.099Z,8.20
2023-04-16T04:37:41.457Z,8.20
2023-04-16T04:40:15.193Z,8.20
2023-04-16T04:42:42.108Z,8.20
2023-04-16T04:45:10.288Z,8.20
2023-04-16T04:47:37.112Z,8.30
2023-04-16T04:50:04.405Z,8.30
2023-04-16T04:52:32.883Z,8.30
2023-04-16T04:55:01.254Z,8.30
2023-04-16T04:57:28.198Z,8.30
2023-04-16T04:59:55.377Z,8.30
2023-04-16T05:02:22.708Z,8.30
2023-04-16T05:04:49.521Z,8.30
2023-04-16T05:07:16.370Z,8.30
2023-04-16T05:09:43.206Z,8.30
2023-04-16T05:12:10.025Z,8.30
2023-04-16T05:14:36.812Z,8.30
2023-04-16T05:17:03.895Z,8.30
2023-04-16T05:19:30.821Z,8.30
2023-04-16T05:21:57.621Z,8.40
2023-04-16T05:24:24.416Z,8.30
2023-04-16T05:26:51.312Z,8.40
2023-04-16T05:29:18.174Z,8.40
2023-04-16T05:31:45.220Z,8.40
2023-04-16T05:34:12.054Z,8.40
2023-04-16T05:36:38.830Z,8.40
2023-04-16T05:39:05.978Z,8.30
2023-04-16T05:41:32.887Z,8.40
2023-04-16T05:43:59.894Z,8.40
2023-04-16T05:46:26.692Z,8.40
2023-04-16T05:48:53.507Z,8.40
2023-04-16T05:51:22.969Z,8.40
2023-04-16T05:53:49.749Z,8.40
2023-04-16T05:56:16.559Z,8.40
2023-04-16T05:58:43.318Z,8.40
2023-04-16T06:01:11.373Z,8.40
2023-04-16T06:03:38.141Z,8.40
2023-04-16T06:06:06.428Z,8.40
2023-04-16T06:08:33.203Z,8.40
2023-04-16T06:11:00.026Z,8.40
2023-04-16T06:13:26.835Z,8.40
2023-04-16T06:15:53.601Z,8.40
2023-04-16T06:18:20.425Z,8.40
2023-04-16T06:20:47.745Z,8.40
2023-04-16T06:23:15.577Z,8.50
2023-04-16T06:25:42.349Z,8.50
2023-04-16T06:28:09.145Z,8.60
2023-04-16T06:30:36.009Z,8.60
2023-04-16T06:33:02.897Z,8.60
2023-04-16T06:35:29.750Z,8.60
2023-04-16T06:37:56.810Z,8.60
2023-04-16T06:40:23.682Z,8.70
2023-04-16T06:42:50.608Z,8.70
2023-04-16T06:45:17.584Z,8.70
2023-04-16T06:47:44.423Z,8.80
2023-04-16T06:50:11.359Z,8.90
2023-04-16T06:52:38.298Z,8.90
2023-04-16T06:55:05.840Z,8.90
2023-04-16T06:57:32.758Z,8.90
2023-04-16T06:59:59.679Z,8.90
2023-04-16T07:02:26.826Z,9.00
2023-04-16T07:04:53.750Z,9.00
2023-04-16T07:07:20.558Z,9.10
2023-04-16T07:09:47.361Z,9.10
2023-04-16T07:12:14.253Z,9.10
2023-04-16T07:14:41.578Z,9.10
2023-04-16T07:17:08.366Z,9.10
2023-04-16T07:19:35.479Z,9.20
2023-04-16T07:22:02.432Z,9.20
2023-04-16T07:24:29.313Z,9.20
2023-04-16T07:26:56.115Z,9.20
2023-04-16T07:29:22.929Z,9.20
2023-04-16T07:31:49.801Z,9.20
2023-04-16T07:34:16.658Z,9.20
2023-04-16T07:36:43.489Z,9.20
2023-04-16T07:39:11.545Z,9.20
2023-04-16T07:41:40.568Z,9.20
2023-04-16T07:44:07.901Z,9.10
2023-04-16T07:46:45.454Z,9.10
2023-04-16T07:49:13.605Z,9.20
2023-04-16T07:51:40.455Z,9.20
2023-04-16T07:54:07.349Z,9.20
2023-04-16T07:56:34.157Z,9.30
2023-04-16T07:59:07.952Z,9.30
2023-04-16T08:01:45.948Z,9.30
2023-04-16T08:04:14.168Z,9.30
2023-04-16T08:06:41.183Z,9.40
2023-04-16T08:09:08.163Z,9.40
2023-04-16T08:11:35.264Z,9.50
2023-04-16T08:14:02.155Z,9.50
2023-04-16T08:16:28.973Z,9.50
2023-04-16T08:18:55.739Z,9.50
2023-04-16T08:21:22.558Z,9.50
2023-04-16T08:23:49.346Z,9.50
2023-04-16T08:26:17.408Z,9.60
2023-04-16T08:28:44.174Z,9.50
2023-04-16T08:31:11.291Z,9.50
2023-04-16T08:33:38.096Z,9.60
2023-04-16T08:36:05.471Z,9.60
2023-04-16T08:38:32.211Z,9.60
2023-04-16T08:41:05.583Z,9.60
2023-04-16T08:43:39.121Z,9.60
2023-04-16T08:46:06.541Z,9.70
2023-04-16T08:48:34.351Z,9.70
2023-04-16T08:51:02.444Z,9.70
2023-04-16T08:54:02.660Z,9.70
2023-04-16T08:56:31.561Z,9.70
2023-04-16T08:59:00.946Z,9.70
2023-04-16T09:01:28.149Z,9.70
2023-04-16T09:03:55.769Z,9.80
2023-04-16T09:06:22.857Z,9.80
2023-04-16T09:08:50.827Z,9.90
2023-04-16T09:11:20.905Z,9.90
2023-04-16T09:13:47.975Z,10.00
2023-04-16T09:16:15.261Z,10.00
2023-04-16T09:18:42.148Z,9.90
2023-04-16T09:21:12.806Z,9.90
2023-04-16T09:23:40.358Z,10.00
2023-04-16T09:26:07.192Z,10.10
2023-04-16T09:28:41.382Z,10.20
2023-04-16T09:31:16.031Z,10.10
2023-04-16T09:33:44.425Z,10.20
2023-04-16T09:36:11.440Z,10.20
2023-04-16T09:38:48.060Z,10.20
2023-04-16T09:41:18.706Z,10.30
2023-04-16T09:43:56.490Z,10.30
2023-04-16T09:46:24.966Z,10.40
2023-04-16T09:48:51.986Z,10.40
2023-04-16T09:51:18.833Z,10.50
2023-04-16T09:53:45.962Z,10.50
2023-04-16T09:56:13.354Z,10.60
2023-04-16T09:58:40.301Z,10.70
2023-04-16T10:01:10.356Z,10.80
2023-04-16T10:03:39.353Z,10.90
2023-04-16T10:06:18.433Z,11.00
2023-04-16T10:08:53.117Z,11.00
2023-04-16T10:11:21.216Z,10.90
2023-04-16T10:13:48.200Z,11.00
2023-04-16T10:16:15.573Z,11.00
2023-04-16T10:18:45.106Z,11.10
2023-04-16T10:21:12.789Z,11.20
2023-04-16T10:23:40.524Z,11.30
2023-04-16T10:26:07.572Z,11.50
2023-04-16T10:28:37.301Z,11.50
2023-04-16T10:31:07.240Z,11.70
2023-04-16T10:33:36.402Z,11.80
2023-04-16T10:36:14.422Z,12.10
2023-04-16T10:38:54.538Z,12.10
2023-04-16T10:41:21.336Z,12.20
2023-04-16T10:43:50.460Z,12.10
2023-04-16T10:46:20.554Z,12.20
2023-04-16T10:48:50.276Z,12.30
2023-04-16T10:51:35.729Z,12.40
2023-04-16T10:54:08.720Z,12.60
2023-04-16T10:56:36.765Z,12.60
2023-04-16T10:59:09.962Z,12.60
2023-04-16T11:01:43.135Z,12.50
2023-04-16T11:04:25.211Z,12.50
2023-04-16T11:07:11.448Z,12.40
2023-04-16T11:09:59.775Z,12.40
2023-04-16T11:12:38.304Z,12.50
2023-04-16T11:15:13.958Z,12.40
2023-04-16T11:17:43.663Z,12.30
2023-04-16T11:20:17.363Z,12.30
2023-04-16T11:22:47.073Z,12.40
2023-04-16T11:25:19.001Z,12.50
2023-04-16T11:27:45.877Z,12.70
2023-04-16T11:30:13.572Z,12.80
2023-04-16T11:32:40.666Z,13.00
2023-04-16T11:35:17.841Z,13.00
2023-04-16T11:37:45.954Z,13.00
2023-04-16T11:40:13.001Z,13.00
2023-04-16T11:42:41.740Z,12.90
2023-04-16T11:45:10.992Z,12.90
2023-04-16T11:47:58.104Z,13.00
2023-04-16T11:50:27.197Z,13.20
2023-04-16T11:52:56.537Z,13.30
2023-04-16T11:55:24.098Z,13.40
2023-04-16T11:57:51.120Z,13.40
2023-04-16T12:00:19.309Z,13.40
2023-04-16T12:02:53.760Z,13.40
2023-04-16T12:05:35.871Z,13.30
2023-04-16T12:08:07.618Z,13.40
2023-04-16T12:10:36.634Z,13.40
2023-04-16T12:13:19.632Z,13.40
2023-04-16T12:15:52.029Z,13.40
2023-04-16T12:18:20.676Z,13.20
2023-04-16T12:20:47.587Z,13.20
2023-04-16T12:23:27.306Z,13.20
2023-04-16T12:25:54.650Z,13.30
2023-04-16T12:28:34.801Z,13.20
2023-04-16T12:31:02.748Z,13.20
2023-04-16T12:33:29.936Z,13.30
2023-04-16T12:35:57.207Z,13.20
2023-04-16T12:38:25.400Z,13.30
2023-04-16T12:40:56.343Z,13.50
2023-04-16T12:43:23.389Z,13.60
2023-04-16T12:45:50.165Z,13.70
2023-04-16T12:48:16.937Z,13.60
2023-04-16T12:50:44.237Z,13.60
2023-04-16T12:53:11.680Z,13.50
2023-04-16T12:55:38.497Z,13.50
2023-04-16T12:58:05.330Z,13.30
2023-04-16T13:00:32.690Z,13.30
2023-04-16T13:02:59.663Z,13.20
2023-04-16T13:05:26.540Z,13.20
2023-04-16T13:07:53.793Z,13.10
2023-04-16T13:10:21.884Z,13.10
2023-04-16T13:12:48.928Z,13.00
2023-04-16T13:15:16.040Z,13.10
2023-04-16T13:17:42.901Z,13.10
2023-04-16T13:20:10.442Z,13.10
2023-04-16T13:22:37.466Z,13.20
2023-04-16T13:25:04.837Z,13.20
2023-04-16T13:27:32.476Z,13.20
2023-04-16T13:29:59.302Z,13.30
2023-04-16T13:32:26.244Z,13.30
2023-04-16T13:34:53.110Z,13.30
2023-04-16T13:37:19.893Z,13.40
2023-04-16T13:39:47.283Z,13.40
2023-04-16T13:42:14.058Z,13.40
2023-04-16T13:44:41.021Z,13.50
2023-04-16T13:47:08.109Z,13.50
2023-04-16T13:49:36.154Z,13.60
2023-04-16T13:52:03.506Z,13.70
2023-04-16T13:54:30.361Z,13.80
2023-04-16T13:56:57.177Z,13.80
2023-04-16T13:59:24.003Z,13.80
2023-04-16T14:01:51.672Z,13.90
2023-04-16T14:04:18.615Z,14.00
2023-04-16T14:06:45.613Z,14.20
2023-04-16T14:09:12.774Z,14.30
2023-04-16T14:11:39.803Z,14.30
2023-04-16T14:14:06.708Z,14.20
2023-04-16T14:16:34.305Z,14.20
2023-04-16T14:19:01.455Z,14.20
2023-04-16T14:21:28.714Z,14.20
2023-04-16T14:23:55.503Z,14.20
2023-04-16T14:26:22.552Z,14.10
2023-04-16T14:28:51.341Z,14.10
2023-04-16T14:31:19.808Z,14.00
2023-04-16T14:33:47.007Z,14.00
2023-04-16T14:36:14.175Z,13.90
2023-04-16T14:38:43.122Z,13.80
2023-04-16T14:41:11.906Z,13.80
2023-04-16T14:43:40.533Z,13.90
2023-04-16T14:46:07.447Z,13.90
2023-04-16T14:48:34.392Z,14.00
2023-04-16T14:51:01.520Z,14.00
2023-04-16T14:53:28.991Z,14.10
2023-04-16T14:55:58.825Z,14.10
2023-04-16T14:58:26.271Z,14.00
2023-04-16T15:00:53.383Z,13.90
2023-04-16T15:03:20.714Z,13.60
2023-04-16T15:05:54.640Z,13.60
2023-04-16T15:08:22.422Z,13.60
2023-04-16T15:10:49.316Z,13.60
2023-04-16T15:13:16.280Z,13.60
2023-04-16T15:15:43.686Z,13.70
2023-04-16T15:18:10.770Z,13.70
2023-04-16T15:20:37.533Z,13.70
2023-04-16T15:23:04.483Z,13.70
2023-04-16T15:25:31.282Z,13.70
2023-04-16T15:27:59.175Z,13.70
2023-04-16T15:30:26.017Z,13.70
2023-04-16T15:32:54.924Z,13.80
2023-04-16T15:35:21.900Z,13.80
2023-04-16T15:37:48.776Z,13.80
2023-04-16T15:40:18.625Z,13.80
2023-04-16T15:42:45.871Z,13.70
2023-04-16T15:45:13.535Z,13.70
2023-04-16T15:47:41.910Z,13.60
2023-04-16T15:50:09.181Z,13.50
2023-04-16T15:52:36.348Z,13.40
2023-04-16T15:55:04.279Z,13.20
2023-04-16T15:57:31.391Z,13.20
2023-04-16T16:02:29.732Z,13.20
2023-04-16T16:04:56.690Z,13.40
2023-04-16T16:07:25.094Z,13.50
2023-04-16T16:09:53.028Z,13.50
2023-04-16T16:12:19.866Z,13.50
2023-04-16T16:14:46.737Z,13.50
2023-04-16T16:17:14.125Z,13.40
2023-04-16T16:19:40.985Z,13.40
2023-04-16T16:22:09.260Z,13.50
2023-04-16T16:24:36.184Z,13.40
2023-04-16T16:27:03.097Z,13.50
2023-04-16T16:29:29.860Z,13.50
2023-04-16T16:31:56.714Z,13.50
2023-04-16T16:34:23.553Z,13.50
2023-04-16T16:36:50.551Z,13.50
2023-04-16T16:39:17.390Z,13.50
2023-04-16T16:41:45.000Z,13.60
2023-04-16T16:44:11.770Z,13.50
2023-04-16T16:46:38.568Z,13.50
2023-04-16T16:49:06.843Z,13.60
2023-04-16T16:51:33.890Z,13.50
2023-04-16T16:54:00.868Z,13.50
2023-04-16T16:56:27.964Z,13.50
2023-04-16T16:58:54.729Z,13.50
2023-04-16T17:01:21.629Z,13.50
2023-04-16T17:03:48.636Z,13.40
2023-04-16T17:06:15.666Z,13.40
2023-04-16T17:08:42.538Z,13.30
2023-04-16T17:11:09.374Z,13.30
2023-04-16T17:13:36.319Z,13.20
2023-04-16T17:16:03.241Z,13.20
2023-04-16T17:18:30.015Z,13.20
2023-04-16T17:20:56.799Z,13.10
2023-04-16T17:23:23.584Z,13.10
2023-04-16T17:25:50.483Z,13.10
2023-04-16T17:28:17.310Z,13.20
2023-04-16T17:30:44.544Z,13.20
2023-04-16T17:33:11.394Z,13.10
2023-04-16T17:35:40.332Z,13.10
2023-04-16T17:38:07.151Z,13.00
2023-04-16T17:40:33.918Z,13.00
2023-04-16T17:43:00.795Z,12.90
2023-04-16T17:45:27.669Z,12.90
2023-04-16T17:47:54.458Z,12.90
2023-04-16T17:50:21.512Z,12.80
2023-04-16T17:52:48.538Z,12.80
2023-04-16T17:55:16.573Z,12.80
2023-04-16T17:57:44.601Z,12.80
2023-04-16T18:00:12.436Z,12.80
2023-04-16T18:02:40.924Z,12.70
2023-04-16T18:05:08.695Z,12.60
2023-04-16T18:07:36.303Z,12.60
2023-04-16T18:10:03.206Z,12.60
2023-04-16T18:12:30.013Z,12.60
2023-04-16T18:14:57.140Z,12.50
2023-04-16T18:17:24.132Z,12.50
2023-04-16T18:19:50.937Z,12.50
2023-04-16T18:22:17.695Z,12.40
2023-04-16T18:24:44.574Z,12.40
2023-04-16T18:27:11.939Z,12.30
2023-04-16T18:29:40.497Z,12.30
2023-04-16T18:32:09.837Z,12.20
2023-04-16T18:34:38.704Z,12.20
2023-04-16T18:37:06.747Z,12.10
2023-04-16T18:39:33.834Z,12.10
2023-04-16T18:42:01.308Z,12.00
2023-04-16T18:44:28.071Z,12.00
2023-04-16T18:46:54.922Z,11.90
2023-04-16T18:49:21.710Z,11.90
2023-04-16T18:51:48.588Z,11.90
2023-04-16T18:54:15.576Z,11.80
2023-04-16T18:56:42.470Z,11.90
2023-04-16T18:59:09.513Z,11.80
2023-04-16T19:01:36.475Z,11.80
2023-04-16T19:04:03.415Z,11.80
2023-04-16T19:06:31.748Z,11.80
2023-04-16T19:08:58.521Z,11.70
2023-04-16T19:11:25.405Z,11.70
2023-04-16T19:13:52.263Z,11.70
2023-04-16T19:16:19.085Z,11.70
2023-04-16T19:18:46.056Z,11.60
2023-04-16T19:21:12.875Z,11.60
2023-04-16T19:23:39.705Z,11.50
2023-04-16T19:26:06.543Z,11.50
2023-04-16T19:28:33.481Z,11.50
2023-04-16T19:31:00.263Z,11.40
2023-04-16T19:33:27.030Z,11.40
2023-04-16T19:35:53.830Z,11.30
2023-04-16T19:38:20.667Z,11.30
2023-04-16T19:40:48.741Z,11.30
2023-04-16T19:43:15.581Z,11.30
2023-04-16T19:45:46.890Z,11.30
2023-04-16T19:48:14.332Z,11.20
2023-04-16T19:50:41.812Z,11.20
2023-04-16T19:53:09.012Z,11.20
2023-04-16T19:55:36.438Z,11.20
2023-04-16T19:58:06.261Z,11.20
2023-04-16T20:00:35.012Z,11.30
2023-04-16T20:03:02.227Z,11.20
2023-04-16T20:05:29.583Z,11.30
2023-04-16T20:07:56.783Z,11.30
2023-04-16T20:10:24.495Z,11.30
2023-04-16T20:12:51.472Z,11.30
2023-04-16T20:15:18.725Z,11.20
2023-04-16T20:17:45.677Z,11.10
2023-04-16T20:20:14.008Z,11.10
2023-04-16T20:22:40.809Z,11.00
2023-04-16T20:25:08.839Z,11.00
2023-04-16T20:27:35.922Z,11.00
2023-04-16T20:30:03.889Z,10.90
2023-04-16T20:32:30.905Z,10.90
2023-04-16T20:34:57.720Z,10.90
2023-04-16T20:37:24.530Z,10.80
2023-04-16T20:39:54.023Z,10.80
2023-04-16T20:42:21.932Z,10.80
2023-04-16T20:44:55.696Z,10.80
2023-04-16T20:47:22.948Z,10.80
2023-04-16T20:49:50.363Z,10.80
2023-04-16T20:52:17.165Z,10.80
2023-04-16T20:54:44.218Z,10.70
2023-04-16T20:57:11.046Z,10.70
2023-04-16T20:59:37.936Z,10.70
2023-04-16T21:02:04.865Z,10.70
2023-04-16T21:04:31.891Z,10.70
2023-04-16T21:06:58.779Z,10.70
2023-04-16T21:09:25.910Z,10.70
2023-04-16T21:11:52.708Z,10.60
2023-04-16T21:14:19.509Z,10.60
2023-04-16T21:16:46.321Z,10.50
2023-04-16T21:19:13.250Z,10.60
2023-04-16T21:21:41.682Z,10.50
2023-04-16T21:24:08.618Z,10.50
2023-04-16T21:26:35.409Z,10.50
2023-04-16T21:29:02.164Z,10.50
2023-04-16T21:31:28.977Z,10.50
2023-04-16T21:33:55.939Z,10.40
2023-04-16T21:36:23.004Z,10.40
2023-04-16T21:38:49.752Z,10.40
2023-04-16T21:41:16.542Z,10.40
2023-04-16T21:43:43.336Z,10.30
2023-04-16T21:46:10.444Z,10.30
2023-04-16T21:48:37.286Z,10.30
2023-04-16T21:51:08.070Z,10.30
2023-04-16T21:53:34.936Z,10.30
2023-04-16T21:56:01.776Z,10.30
2023-04-16T21:58:28.577Z,10.30
2023-04-16T22:00:55.788Z,10.20
2023-04-16T22:03:27.551Z,10.20
2023-04-16T22:06:00.828Z,10.20
2023-04-16T22:08:30.884Z,10.20
2023-04-16T22:11:02.264Z,10.20
2023-04-16T22:13:32.201Z,10.20
2023-04-16T22:16:02.643Z,10.20
2023-04-16T22:18:32.609Z,10.20
2023-04-16T22:20:59.519Z,10.20
2023-04-16T22:23:26.333Z,10.20
2023-04-16T22:25:55.229Z,10.20
2023-04-16T22:28:22.503Z,10.20
2023-04-16T22:30:49.457Z,10.30
2023-04-16T22:33:16.368Z,10.20
2023-04-16T22:35:43.205Z,10.20
2023-04-16T22:38:10.480Z,10.20
2023-04-16T22:40:37.324Z,10.20
2023-04-16T22:43:04.418Z,10.20
2023-04-16T22:45:31.341Z,10.20
2023-04-16T22:47:58.249Z,10.20
2023-04-16T22:50:25.095Z,10.30
2023-04-16T22:52:51.832Z,10.20
2023-04-16T22:55:18.649Z,10.30
2023-04-16T22:57:45.771Z,10.30
2023-04-16T23:00:16.383Z,10.30
2023-04-16T23:02:43.976Z,10.20
2023-04-16T23:05:11.603Z,10.20
2023-04-16T23:07:38.692Z,10.20
2023-04-16T23:10:06.153Z,10.20
2023-04-16T23:12:33.000Z,10.20
2023-04-16T23:15:00.530Z,10.20
2023-04-16T23:17:27.945Z,10.20
2023-04-16T23:19:54.891Z,10.30
2023-04-16T23:22:21.806Z,10.20
2023-04-16T23:24:48.624Z,10.20
2023-04-16T23:27:15.519Z,10.20
2023-04-16T23:29:42.349Z,10.20
2023-04-16T23:32:09.107Z,10.30
2023-04-16T23:34:36.110Z,10.20
2023-04-16T23:37:02.912Z,10.20
2023-04-16T23:39:29.705Z,10.20
2023-04-16T23:41:57.445Z,10.10
2023-04-16T23:44:24.304Z,10.10
2023-04-16T23:46:51.202Z,10.10
2023-04-16T23:49:18.031Z,10.10
2023-04-16T23:51:44.812Z,10.10
2023-04-16T23:54:11.626Z,10.10
2023-04-16T23:56:38.374Z,10.00
2023-04-16T23:59:05.193Z,10.10
